Antwerp, Ohio
Current Conditions -  °F | °C
As of 6:55 PM on Sunday 25 Jan 2015 (Local Time) from KGWB Reporting Station
Light Snow Light Snow  
Wind Chill: 10°   Ceiling: 2000
Heat Index: 23°   Visibility: 4mi
Dew Point: 19°   Wind: 15mph
Humidity: 86%   Direction: 50°NE
Pressure: 29.88"   Gusts: 20mph
Location:  41.18°N, 84.74°W
Report Text: KGWB 252355Z AUTO 05013G17KT 4SM -SN SCT013 BKN020 M05/M07 A2988 RMK AO2
Loading
Personal Weather Stations






























Interactive Weather Map New forecast layout! Learn more

10-Day Weather Forecast

Advertisements
Track Severe Weather on mobile